Time;durP1;ratioP1;P1;durP2;ratioP2;P2;SDS_P1;SDS_P2;PMS_P1;PMS_P2;Temp;Humidity;BMP_temperature;BMP_pressure;BME280_temperature;BME280_humidity;BME280_pressure;Samples;Min_cycle;Max_cycle;Signal;HPM_P1;HPM_P2
2022/12/04 00:02:29;;;;;;;51.80;31.20;;;;;;;-0.34;100.00;101898.50;10373366;28;20053;-68
2022/12/04 00:07:29;;;;;;;46.47;23.17;;;;;;;-0.32;100.00;101909.88;10377447;28;20057;-68
2022/12/04 00:12:30;;;;;;;60.83;33.10;;;;;;;-0.37;100.00;101888.06;10381297;28;20037;-68
2022/12/04 00:17:30;;;;;;;58.88;33.75;;;;;;;-0.37;100.00;101904.88;10379802;28;20073;-68
2022/12/04 00:22:30;;;;;;;51.28;28.52;;;;;;;-0.44;100.00;101894.75;10361309;28;20367;-71
2022/12/04 00:27:31;;;;;;;70.05;38.90;;;;;;;-0.47;100.00;101887.81;10379108;28;20045;-68
2022/12/04 00:32:31;;;;;;;54.75;31.85;;;;;;;-0.42;100.00;101887.50;10377747;28;20048;-69
2022/12/04 00:37:32;;;;;;;49.67;33.00;;;;;;;-0.43;100.00;101889.31;10362000;28;20038;-68
2022/12/04 00:42:32;;;;;;;61.25;32.92;;;;;;;-0.41;100.00;101898.06;10379014;28;20474;-68
2022/12/04 00:47:32;;;;;;;67.75;37.38;;;;;;;-0.41;100.00;101890.06;10361280;28;20065;-68
2022/12/04 00:52:33;;;;;;;61.35;34.22;;;;;;;-0.39;100.00;101893.47;10377757;28;20041;-69
2022/12/04 00:57:33;;;;;;;57.28;34.40;;;;;;;-0.39;100.00;101896.13;10378545;28;20050;-69
2022/12/04 01:02:34;;;;;;;59.00;32.25;;;;;;;-0.43;100.00;101889.31;10378821;28;20100;-69
2022/12/04 01:07:34;;;;;;;57.20;34.67;;;;;;;-0.46;100.00;101889.50;10393258;28;20034;-68
2022/12/04 01:12:35;;;;;;;59.95;32.70;;;;;;;-0.35;100.00;101892.31;10378057;28;20041;-68
2022/12/04 01:17:36;;;;;;;72.43;40.58;;;;;;;-0.36;100.00;101890.59;10377061;28;20165;-68
2022/12/04 01:22:36;;;;;;;47.00;30.10;;;;;;;-0.34;100.00;101893.19;10375971;28;20029;-68
2022/12/04 01:27:36;;;;;;;60.65;31.35;;;;;;;-0.37;100.00;101894.22;10377440;28;20034;-69
2022/12/04 01:32:37;;;;;;;58.72;30.40;;;;;;;-0.41;100.00;101897.22;10375399;28;20045;-69
2022/12/04 01:37:37;;;;;;;60.42;35.65;;;;;;;-0.43;100.00;101884.00;10342827;28;20176;-68
2022/12/04 01:42:38;;;;;;;35.65;21.23;;;;;;;-0.45;100.00;101893.88;10375174;28;20176;-68
2022/12/04 01:47:38;;;;;;;63.60;33.33;;;;;;;-0.41;100.00;101887.41;10377948;28;20072;-70
2022/12/04 01:52:38;;;;;;;64.68;33.72;;;;;;;-0.35;100.00;101886.13;10378746;28;20402;-68
2022/12/04 01:57:39;;;;;;;72.68;40.58;;;;;;;-0.33;100.00;101874.44;10377661;28;20041;-68
2022/12/04 02:02:44;;;;;;;41.17;27.30;;;;;;;-0.37;100.00;101891.56;10358940;28;20042;-69
2022/12/04 02:07:46;;;;;;;62.73;34.87;;;;;;;-0.33;100.00;101885.06;10374610;28;20034;-69
2022/12/04 02:12:50;;;;;;;57.20;36.95;;;;;;;-0.32;100.00;101888.59;10375904;28;20072;-68
2022/12/04 02:18:09;;;;;;;55.75;31.63;;;;;;;-0.34;100.00;101896.69;10358528;28;20096;-68
2022/12/04 02:23:33;;;;;;;72.18;39.60;;;;;;;-0.30;100.00;101884.88;10374441;28;20113;-68
2022/12/04 02:28:39;;;;;;;73.95;41.42;;;;;;;-0.36;100.00;101887.94;10374131;28;20033;-68
2022/12/04 02:33:45;;;;;;;76.20;37.88;;;;;;;-0.33;100.00;101881.56;10372734;28;20108;-69
2022/12/04 02:38:54;;;;;;;;;;;;;;;-0.30;100.00;101876.88;10358036;28;20060;-68
2022/12/04 02:43:56;;;;;;;64.03;33.28;;;;;;;-0.29;100.00;101865.31;10390166;28;19910;-69
2022/12/04 02:49:00;;;;;;;56.60;36.47;;;;;;;-0.31;100.00;101853.06;10357807;28;20037;-69
2022/12/04 02:54:10;;;;;;;66.25;40.13;;;;;;;-0.22;100.00;101855.09;10373649;28;20034;-69
2022/12/04 02:59:16;;;;;;;83.85;40.40;;;;;;;-0.18;100.00;101855.72;10357324;28;20054;-69
2022/12/04 03:04:24;;;;;;;65.60;38.42;;;;;;;-0.16;100.00;101859.13;10356978;28;20038;-68
2022/12/04 03:09:36;;;;;;;68.45;38.80;;;;;;;-0.15;100.00;101856.38;10372797;28;20541;-68
2022/12/04 03:15:04;;;;;;;74.95;38.15;;;;;;;-0.11;100.00;101854.34;10356660;28;20092;-68
2022/12/04 03:20:08;;;;;;;68.10;36.72;;;;;;;-0.13;100.00;101842.94;10372872;28;20056;-69
2022/12/04 03:25:09;;;;;;;62.97;37.53;;;;;;;-0.19;100.00;101848.69;10356984;28;20073;-68
2022/12/04 03:30:11;;;;;;;87.55;44.65;;;;;;;-0.12;100.00;101852.66;10355744;28;20049;-67
2022/12/04 03:35:32;;;;;;;79.72;42.63;;;;;;;-0.15;100.00;101844.88;10372505;28;20038;-69
2022/12/04 03:40:37;;;;;;;69.25;39.90;;;;;;;-0.10;100.00;101845.41;10375040;28;20443;-70
2022/12/04 03:45:46;;;;;;;66.28;39.00;;;;;;;-0.14;100.00;101835.91;10364576;28;20034;-68
2022/12/04 03:51:09;;;;;;;61.72;39.05;;;;;;;-0.14;100.00;101833.25;10380645;28;20040;-68
2022/12/04 03:56:14;;;;;;;56.33;33.30;;;;;;;-0.15;100.00;101831.56;10372341;28;20092;-69
2022/12/04 04:01:16;;;;;;;65.95;39.88;;;;;;;-0.16;100.00;101828.06;10380981;28;20030;-68
2022/12/04 04:06:20;;;;;;;76.78;40.42;;;;;;;-0.10;100.00;101824.09;10379911;28;20085;-69
2022/12/04 04:11:34;;;;;;;70.97;38.80;;;;;;;-0.09;100.00;101828.50;10387351;28;20246;-69
2022/12/04 04:27:13;;;;;;;78.20;42.47;;;;;;;-0.13;100.00;101821.66;10364576;28;20541;-68
2022/12/04 04:32:31;;;;;;;67.22;38.03;;;;;;;-0.05;100.00;101832.63;10378565;28;20070;-69
2022/12/04 04:37:37;;;;;;;69.75;38.50;;;;;;;-0.05;100.00;101824.66;10346899;28;20084;-68
2022/12/04 04:42:46;;;;;;;;;;;;;;;-0.07;100.00;101829.22;10379654;28;20070;-68
2022/12/04 04:47:50;;;;;;;60.92;38.88;;;;;;;-0.13;100.00;101827.81;10394476;28;19996;-68
2022/12/04 04:52:53;;;;;;;69.45;38.60;;;;;;;-0.21;100.00;101822.19;10361229;28;20053;-68
2022/12/04 04:57:53;;;;;;;74.95;35.72;;;;;;;-0.07;100.00;101837.19;10360910;28;20048;-68
2022/12/04 05:02:54;;;;;;;71.93;41.50;;;;;;;-0.07;100.00;101831.88;10379270;28;20382;-68
2022/12/04 05:07:54;;;;;;;73.72;36.63;;;;;;;-0.11;100.00;101835.72;10367166;28;20083;-68
2022/12/04 05:12:54;;;;;;;65.35;39.08;;;;;;;-0.08;100.00;101841.69;10384655;28;20034;-69
2022/12/04 05:17:55;;;;;;;71.22;39.28;;;;;;;0.02;100.00;101838.38;10388666;28;20069;-68
2022/12/04 05:22:55;;;;;;;62.78;37.13;;;;;;;-0.02;100.00;101837.75;10386811;28;20038;-71
2022/12/04 05:27:57;;;;;;;68.88;38.80;;;;;;;-0.12;100.00;101842.84;10383245;28;20049;-69
2022/12/04 05:32:57;;;;;;;84.40;42.92;;;;;;;-0.09;100.00;101841.81;10396174;28;20545;-69
2022/12/04 05:37:57;;;;;;;56.40;26.73;;;;;;;-0.03;100.00;101849.38;10390967;28;20038;-69
2022/12/04 05:42:58;;;;;;;60.83;36.72;;;;;;;-0.04;100.00;101850.31;10380385;28;20045;-69
2022/12/04 05:47:58;;;;;;;77.63;39.83;;;;;;;0.03;100.00;101848.91;10377510;28;20062;-69
2022/12/04 05:52:58;;;;;;;53.17;36.05;;;;;;;0.03;100.00;101845.41;10381911;28;20046;-69
2022/12/04 05:57:59;;;;;;;68.15;39.35;;;;;;;0.01;100.00;101844.69;10374651;28;20068;-69
2022/12/04 06:02:59;;;;;;;70.13;39.45;;;;;;;0.01;100.00;101847.34;10358157;28;20063;-68
2022/12/04 06:08:00;;;;;;;71.80;39.25;;;;;;;0.01;100.00;101848.19;10375266;28;20033;-69
2022/12/04 06:13:00;;;;;;;64.35;38.20;;;;;;;0.00;100.00;101849.16;10375052;28;20074;-68
2022/12/04 06:18:01;;;;;;;59.25;35.30;;;;;;;0.01;100.00;101848.19;10357848;28;20536;-68
2022/12/04 06:23:01;;;;;;;77.32;43.88;;;;;;;0.01;100.00;101848.19;10375160;28;20046;-69
2022/12/04 06:28:01;;;;;;;67.90;39.25;;;;;;;0.03;100.00;101846.25;10391298;28;20042;-68
2022/12/04 06:33:02;;;;;;;72.60;43.30;;;;;;;-0.02;100.00;101840.41;10380094;28;20034;-69
2022/12/04 06:38:02;;;;;;;67.93;40.28;;;;;;;-0.02;100.00;101838.59;10377035;28;20030;-72
2022/12/04 06:43:02;;;;;;;68.45;36.75;;;;;;;0.01;100.00;101845.53;10374642;28;20038;-69
2022/12/04 06:48:03;;;;;;;66.80;39.60;;;;;;;-0.02;100.00;101845.72;10374265;28;20041;-70
2022/12/04 06:53:03;;;;;;;79.28;40.90;;;;;;;-0.01;100.00;101839.44;10372926;28;20120;-68
2022/12/04 06:58:04;;;;;;;71.43;42.55;;;;;;;0.01;100.00;101837.53;10356253;28;20041;-69
2022/12/04 07:03:04;;;;;;;79.60;42.45;;;;;;;-0.03;100.00;101833.38;10373845;28;20069;-69
2022/12/04 07:08:05;;;;;;;72.15;42.22;;;;;;;0.01;100.00;101842.88;10372434;28;20060;-68
2022/12/04 07:13:05;;;;;;;67.63;44.08;;;;;;;-0.02;100.00;101840.41;10374174;28;20046;-68
2022/12/04 07:18:06;;;;;;;80.18;41.42;;;;;;;0.00;100.00;101846.50;10380126;28;20057;-68
2022/12/04 07:23:06;;;;;;;70.40;42.70;;;;;;;0.02;100.00;101847.22;10383177;28;20045;-69
2022/12/04 07:28:06;;;;;;;59.90;40.08;;;;;;;-0.05;100.00;101843.28;10381032;28;20037;-70
2022/12/04 07:33:07;;;;;;;86.45;47.00;;;;;;;0.00;100.00;101849.16;10381440;28;20038;-70
2022/12/04 07:38:07;;;;;;;65.88;39.13;;;;;;;-0.06;100.00;101849.56;10383307;28;20466;-68
2022/12/04 07:43:08;;;;;;;77.10;45.75;;;;;;;-0.09;100.00;101844.47;10381644;28;20048;-69
2022/12/04 07:48:08;;;;;;;68.53;41.45;;;;;;;-0.07;100.00;101854.03;10380413;28;20034;-69
2022/12/04 07:53:08;;;;;;;83.10;41.25;;;;;;;0.01;100.00;101860.66;10380273;28;20037;-69
2022/12/04 07:58:09;;;;;;;77.28;44.45;;;;;;;0.02;100.00;101857.88;10378879;28;20034;-69
2022/12/04 08:03:09;;;;;;;40.13;27.67;;;;;;;0.00;100.00;101865.13;10379317;28;20500;-70
2022/12/04 08:08:10;;;;;;;59.08;30.77;;;;;;;-0.01;100.00;101868.72;10379830;28;20030;-70
2022/12/04 08:13:10;;;;;;;46.72;28.95;;;;;;;0.02;100.00;101863.19;10380219;28;20042;-70
2022/12/04 08:18:10;;;;;;;59.30;38.30;;;;;;;0.04;100.00;101871.09;10380196;28;20088;-70
2022/12/04 08:23:11;;;;;;;54.03;33.95;;;;;;;0.05;100.00;101870.97;10378152;28;20060;-70
2022/12/04 08:28:11;;;;;;;67.00;38.15;;;;;;;0.08;100.00;101880.56;10379396;28;20124;-69
2022/12/04 08:33:11;;;;;;;64.22;34.30;;;;;;;0.11;100.00;101875.88;10378525;28;20029;-69
2022/12/04 08:38:12;;;;;;;44.83;30.55;;;;;;;0.14;100.00;101888.16;10380525;28;20038;-69
2022/12/04 08:43:12;;;;;;;49.67;28.20;;;;;;;0.12;100.00;101890.91;10378425;28;20563;-70
2022/12/04 08:48:13;;;;;;;55.42;33.08;;;;;;;0.10;100.00;101890.16;10380214;28;20034;-72
2022/12/04 08:53:13;;;;;;;56.95;38.75;;;;;;;0.14;100.00;101910.28;10380168;28;20037;-71
2022/12/04 08:58:13;;;;;;;55.83;34.88;;;;;;;0.15;100.00;101898.69;10384470;28;20049;-70
2022/12/04 09:03:15;;;;;;;63.55;38.13;;;;;;;0.17;100.00;101902.09;10389342;28;20066;-71
2022/12/04 09:08:16;;;;;;;60.58;34.13;;;;;;;0.22;100.00;101905.31;10381088;28;20036;-70
2022/12/04 09:13:16;;;;;;;61.00;39.58;;;;;;;0.27;100.00;101915.63;10377940;28;20041;-70
2022/12/04 09:18:17;;;;;;;60.80;34.97;;;;;;;0.33;100.00;101907.22;10377988;28;20386;-70
2022/12/04 09:23:17;;;;;;;48.83;28.27;;;;;;;0.35;100.00;101909.75;10377592;28;20042;-69
2022/12/04 09:28:18;;;;;;;53.13;32.58;;;;;;;0.29;100.00;101907.53;10376821;28;20073;-70
2022/12/04 09:33:18;;;;;;;33.00;24.90;;;;;;;0.28;100.00;101905.81;10328975;28;20521;-69
2022/12/04 09:38:19;;;;;;;51.20;33.63;;;;;;;0.27;100.00;101907.66;10374820;28;20124;-70
2022/12/04 09:43:42;;;;;;;55.60;32.47;;;;;;;0.38;100.00;101901.56;10359368;28;20461;-69
2022/12/04 09:48:43;;;;;;;57.05;34.28;;;;;;;0.37;100.00;101899.88;10375733;28;20124;-69
2022/12/04 09:53:50;;;;;;;74.00;36.60;;;;;;;0.41;100.00;101901.34;10358680;28;20033;-69
2022/12/04 09:59:38;;;;;;;66.35;36.85;;;;;;;0.49;100.00;101900.84;10375192;28;20473;-70
2022/12/04 10:04:39;;;;;;;72.80;35.90;;;;;;;0.44;100.00;101901.13;10358429;28;20040;-69
2022/12/04 10:09:56;;;;;;;55.85;35.33;;;;;;;0.42;100.00;101895.06;10390916;28;20045;-69
2022/12/04 10:15:18;;;;;;;63.45;35.20;;;;;;;0.47;100.00;101900.91;10391694;28;20018;-69
2022/12/04 10:20:24;;;;;;;76.60;41.10;;;;;;;0.56;100.00;101889.63;10374044;28;20049;-69
2022/12/04 10:25:24;;;;;;;51.85;36.33;;;;;;;0.59;100.00;101901.88;10390090;28;20048;-69
2022/12/04 10:30:26;;;;;;;60.15;33.92;;;;;;;0.62;100.00;101891.84;10389507;28;20042;-70
2022/12/04 10:35:28;;;;;;;67.97;37.42;;;;;;;0.71;100.00;101892.19;10374113;28;20064;-69
2022/12/04 10:40:55;;;;;;;50.28;32.30;;;;;;;0.73;100.00;101885.75;10374136;28;20473;-69
2022/12/04 10:45:55;;;;;;;63.65;37.60;;;;;;;0.74;100.00;101889.28;10372671;28;20123;-69
2022/12/04 10:50:55;;;;;;;54.88;36.60;;;;;;;0.79;100.00;101887.97;10373467;28;20038;-70
2022/12/04 10:56:26;;;;;;;58.22;34.90;;;;;;;0.69;100.00;101894.94;10372506;28;20426;-70
2022/12/04 11:01:27;;;;;;;56.42;29.13;;;;;;;0.69;100.00;101876.28;10388922;28;20030;-70
2022/12/04 11:06:28;;;;;;;64.90;33.88;;;;;;;0.78;100.00;101875.63;10372192;28;20062;-69
2022/12/04 11:11:30;;;;;;;43.75;28.08;;;;;;;0.73;100.00;101864.41;10372830;28;20126;-69
2022/12/04 11:16:36;;;;;;;61.42;35.00;;;;;;;0.80;100.00;101865.72;10357557;28;20454;-69
2022/12/04 11:21:37;;;;;;;53.40;31.85;;;;;;;0.91;100.00;101856.91;10379387;28;20050;-69
2022/12/04 11:26:37;;;;;;;36.72;27.73;;;;;;;0.90;100.00;101845.41;10374313;28;20049;-70
2022/12/04 11:31:37;;;;;;;56.58;31.75;;;;;;;0.84;100.00;101845.84;10372429;28;20029;-69
2022/12/04 11:36:39;;;;;;;36.38;20.40;;;;;;;0.85;100.00;101842.22;10371908;28;20187;-70
2022/12/04 11:41:39;;;;;;;38.80;26.33;;;;;;;0.93;100.00;101855.00;10371990;28;20038;-69
2022/12/04 11:46:50;;;;;;;34.35;25.77;;;;;;;0.81;100.00;101861.22;10374016;28;20471;-69
2022/12/04 11:52:16;;;;;;;45.97;25.13;;;;;;;0.74;100.00;101855.47;10372909;28;20033;-69
2022/12/04 11:57:34;;;;;;;32.87;22.37;;;;;;;0.69;100.00;101837.13;10374741;28;20034;-70
2022/12/04 12:03:00;;;;;;;40.75;22.23;;;;;;;0.55;100.00;101845.28;10375426;28;20130;-70
2022/12/04 12:08:19;;;;;;;46.60;27.33;;;;;;;0.60;100.00;101831.59;10380570;28;20080;-69
2022/12/04 12:13:54;;;;;;;45.30;25.50;;;;;;;0.50;100.00;101833.25;10378777;28;20033;-69
2022/12/04 12:19:03;;;;;;;46.45;25.73;;;;;;;0.46;100.00;101822.78;10396144;28;20143;-68
2022/12/04 12:24:10;;;;;;;51.25;26.80;;;;;;;0.53;100.00;101836.53;10378679;28;20390;-69
2022/12/04 12:29:24;;;;;;;58.65;26.27;;;;;;;0.53;100.00;101844.53;10378479;28;20470;-70
2022/12/04 12:34:41;;;;;;;46.65;27.25;;;;;;;0.51;100.00;101843.81;10363558;28;20042;-69
2022/12/04 12:39:46;;;;;;;51.22;29.10;;;;;;;0.57;100.00;101832.69;10361993;28;20026;-68
2022/12/04 12:44:53;;;;;;;59.80;30.83;;;;;;;0.57;100.00;101840.66;10378949;28;20034;-69
2022/12/04 12:49:58;;;;;;;43.58;24.50;;;;;;;0.54;100.00;101829.38;10377624;28;20033;-69
2022/12/04 12:55:23;;;;;;;47.53;28.42;;;;;;;0.52;100.00;101818.00;10392696;28;20038;-70
2022/12/04 13:00:23;;;;;;;50.25;27.73;;;;;;;0.54;100.00;101816.91;10360737;28;20145;-69
2022/12/04 13:05:26;;;;;;;34.72;26.13;;;;;;;0.54;100.00;101810.72;10377070;28;20123;-69
2022/12/04 13:10:48;;;;;;;42.65;27.33;;;;;;;0.47;100.00;101805.84;10376505;28;20073;-69
2022/12/04 13:15:51;;;;;;;40.03;24.45;;;;;;;0.54;100.00;101795.59;10377564;28;20466;-69
2022/12/04 13:20:53;;;;;;;39.40;25.63;;;;;;;0.50;100.00;101804.78;10375635;28;20117;-68
2022/12/04 13:25:56;;;;;;;37.80;23.92;;;;;;;0.45;100.00;101798.94;10375366;28;20041;-68
2022/12/04 13:31:28;;;;;;;41.30;25.50;;;;;;;0.51;100.00;101793.16;10376376;28;20060;-68
2022/12/04 13:37:06;;;;;;;41.15;24.02;;;;;;;0.41;100.00;101778.78;10330278;28;20125;-69
2022/12/04 13:42:22;;;;;;;51.40;27.38;;;;;;;0.45;100.00;101774.94;10378133;28;20056;-69
2022/12/04 13:47:31;;;;;;;33.73;21.27;;;;;;;0.37;100.00;101786.13;10376341;28;20025;-70
2022/12/04 13:52:39;;;;;;;29.10;16.20;;;;;;;0.32;100.00;101787.44;10374925;28;20026;-68
2022/12/04 13:57:39;;;;;;;28.60;18.05;;;;;;;0.34;100.00;101798.84;10374745;28;20034;-69
2022/12/04 14:02:43;;;;;;;30.55;21.88;;;;;;;0.44;100.00;101786.56;10390937;28;20112;-69
2022/12/04 14:07:58;;;;;;;20.42;14.85;;;;;;;0.44;100.00;101790.06;10374518;28;20030;-69
2022/12/04 14:13:14;;;;;;;26.77;18.33;;;;;;;0.37;100.00;101788.81;10390996;28;20041;-69
2022/12/04 14:18:18;;;;;;;38.15;22.83;;;;;;;0.54;100.00;101794.75;10374564;28;20406;-68
2022/12/04 14:23:25;;;;;;;31.13;20.70;;;;;;;0.56;100.00;101792.81;10389635;28;20053;-70
2022/12/04 14:28:47;;;;;;;25.02;17.27;;;;;;;0.44;100.00;101783.88;10373398;28;20029;-69
2022/12/04 14:34:26;;;;;;;29.00;19.02;;;;;;;0.32;100.00;101788.31;10324196;28;20045;-69
2022/12/04 14:39:28;;;;;;;26.52;17.10;;;;;;;0.35;100.00;101789.88;10352749;28;20049;-69
2022/12/04 14:44:29;;;;;;;26.48;17.55;;;;;;;0.39;100.00;101802.03;10390078;28;20038;-68
2022/12/04 14:49:49;;;;;;;22.60;13.32;;;;;;;0.44;100.00;101795.41;10372682;28;20141;-70
2022/12/04 14:54:55;;;;;;;23.08;13.68;;;;;;;0.50;100.00;101801.25;10374251;28;20041;-70
2022/12/04 14:59:56;;;;;;;30.80;17.95;;;;;;;0.51;100.00;101805.63;10394990;28;20028;-69
2022/12/04 15:04:56;;;;;;;17.05;13.68;;;;;;;0.52;100.00;101800.19;10374433;28;20053;-69
2022/12/04 15:15:24;;;;;;;25.40;15.77;;;;;;;0.58;100.00;101812.22;10373594;28;20041;-69
2022/12/04 15:20:25;;;;;;;24.95;15.82;;;;;;;0.65;100.00;101809.00;10389500;28;20054;-68
2022/12/04 15:25:27;;;;;;;30.52;16.08;;;;;;;0.61;100.00;101801.34;10371990;28;20041;-69
2022/12/04 15:30:28;;;;;;;27.90;17.42;;;;;;;0.65;100.00;101802.81;10372488;28;20113;-69
2022/12/04 15:35:30;;;;;;;26.25;18.17;;;;;;;0.61;100.00;101796.03;10373965;28;20026;-69
2022/12/04 15:40:30;;;;;;;22.73;15.63;;;;;;;0.69;100.00;101797.16;10380834;28;20048;-69
2022/12/04 15:45:33;;;;;;;27.67;17.73;;;;;;;0.65;100.00;101792.16;10380801;28;20033;-69
2022/12/04 15:50:33;;;;;;;28.98;18.80;;;;;;;0.75;100.00;101808.34;10380517;28;20061;-72
2022/12/04 15:55:47;;;;;;;20.48;16.20;;;;;;;0.74;100.00;101814.66;10378532;28;20040;-70
2022/12/04 16:00:56;;;;;;;28.55;18.52;;;;;;;0.71;100.00;101829.03;10399937;28;20121;-69
2022/12/04 16:06:22;;;;;;;28.38;18.90;;;;;;;0.69;100.00;101828.28;10382131;28;20029;-70
2022/12/04 16:11:24;;;;;;;23.48;14.18;;;;;;;0.73;100.00;101843.09;10379871;28;20036;-70
2022/12/04 16:16:24;;;;;;;17.75;14.57;;;;;;;0.66;100.00;101850.69;10380061;28;20030;-69
2022/12/04 16:21:28;;;;;;;32.42;19.27;;;;;;;0.57;100.00;101843.34;10380484;28;20049;-69
2022/12/04 16:26:29;;;;;;;27.70;15.70;;;;;;;0.65;100.00;101867.66;10394768;28;20087;-69
2022/12/04 16:31:29;;;;;;;28.52;17.90;;;;;;;0.70;100.00;101853.97;10380227;28;20083;-69
2022/12/04 16:36:30;;;;;;;33.60;22.17;;;;;;;0.65;100.00;101864.97;10378129;28;20021;-69
2022/12/04 16:41:30;;;;;;;32.83;22.90;;;;;;;0.51;100.00;101867.78;10378732;28;20026;-69
2022/12/04 16:46:33;;;;;;;23.70;16.65;;;;;;;0.58;100.00;101860.22;10394680;28;20442;-70
2022/12/04 16:51:36;;;;;;;34.67;18.27;;;;;;;0.55;100.00;101857.75;10379093;28;20029;-69
2022/12/04 16:56:36;;;;;;;41.90;23.90;;;;;;;0.60;100.00;101864.44;10361152;28;20372;-70
2022/12/04 17:01:45;;;;;;;42.67;26.92;;;;;;;0.66;100.00;101850.69;10377648;28;20034;-72
2022/12/04 17:06:45;;;;;;;45.50;29.88;;;;;;;0.64;100.00;101846.44;10376679;28;20080;-70
2022/12/04 17:11:45;;;;;;;43.97;26.15;;;;;;;0.69;100.00;101844.28;10378248;28;20034;-70
2022/12/04 17:16:46;;;;;;;39.25;23.77;;;;;;;0.67;100.00;101847.06;10377201;28;20029;-68
2022/12/04 17:21:46;;;;;;;31.63;24.55;;;;;;;0.68;100.00;101862.09;10394290;28;20046;-70
2022/12/04 17:26:47;;;;;;;42.15;27.23;;;;;;;0.64;100.00;101849.97;10376861;28;20037;-71
2022/12/04 17:31:47;;;;;;;36.90;24.50;;;;;;;0.69;100.00;101858.47;10377909;28;20462;-69
2022/12/04 17:36:47;;;;;;;47.65;36.38;;;;;;;0.72;100.00;101851.22;10376575;28;20053;-69
2022/12/04 17:41:48;;;;;;;42.13;28.02;;;;;;;0.68;100.00;101861.25;10392258;28;20108;-70
2022/12/04 17:46:48;;;;;;;47.97;30.02;;;;;;;0.69;100.00;101847.78;10376712;28;20136;-69
2022/12/04 17:51:49;;;;;;;45.92;28.40;;;;;;;0.80;100.00;101852.38;10392271;28;20030;-69
2022/12/04 17:56:49;;;;;;;38.90;28.10;;;;;;;0.80;100.00;101860.38;10376177;28;20216;-70
2022/12/04 18:01:50;;;;;;;44.75;31.05;;;;;;;0.88;100.00;101867.81;10376356;28;20030;-70
2022/12/04 18:06:51;;;;;;;49.72;26.80;;;;;;;0.91;100.00;101862.25;10393679;28;20033;-70
2022/12/04 18:11:51;;;;;;;50.03;29.65;;;;;;;0.93;100.00;101863.84;10376233;28;20038;-70
2022/12/04 18:16:53;;;;;;;40.85;27.05;;;;;;;0.94;100.00;101872.69;10382826;28;20026;-69
2022/12/04 18:21:54;;;;;;;39.47;23.85;;;;;;;0.95;100.00;101861.06;10381895;28;20046;-70
2022/12/04 18:26:54;;;;;;;49.33;30.45;;;;;;;1.01;100.00;101873.94;10385598;28;20042;-70
2022/12/04 18:31:55;;;;;;;33.33;23.73;;;;;;;1.03;100.00;101857.84;10385233;28;20075;-70
2022/12/04 18:36:55;;;;;;;51.15;31.88;;;;;;;1.07;100.00;101868.16;10377668;28;20034;-70
2022/12/04 18:41:55;;;;;;;44.05;22.75;;;;;;;1.09;100.00;101860.91;10390271;28;20056;-70
2022/12/04 18:46:56;;;;;;;35.38;24.80;;;;;;;1.16;100.00;101867.50;10374459;28;20095;-70
2022/12/04 18:51:57;;;;;;;47.38;29.70;;;;;;;1.24;100.00;101872.25;10374708;28;20163;-70
2022/12/04 18:56:57;;;;;;;39.08;28.42;;;;;;;1.34;100.00;101867.09;10374204;28;20458;-69
2022/12/04 19:01:58;;;;;;;46.15;29.92;;;;;;;1.38;100.00;101877.44;10374684;28;20072;-70
2022/12/04 19:06:58;;;;;;;42.15;24.40;;;;;;;1.37;100.00;101880.22;10373637;28;20026;-69
2022/12/04 19:11:59;;;;;;;31.90;20.25;;;;;;;1.40;100.00;101874.66;10380211;28;20452;-70
2022/12/04 19:16:59;;;;;;;56.38;30.60;;;;;;;1.46;100.00;101873.34;10387823;28;20091;-69
2022/12/04 19:22:00;;;;;;;52.30;29.20;;;;;;;1.47;100.00;101873.25;10385481;28;20049;-70
2022/12/04 19:27:08;;;;;;;39.58;28.10;;;;;;;1.53;100.00;101870.13;10402640;28;20124;-70
2022/12/04 19:32:09;;;;;;;39.40;30.08;;;;;;;1.51;100.00;101881.88;10387585;28;20021;-69
2022/12/04 19:37:09;;;;;;;50.03;31.60;;;;;;;1.50;100.00;101891.72;10387014;28;20042;-70
2022/12/04 19:42:10;;;;;;;49.70;27.27;;;;;;;1.54;100.00;101887.84;10386064;28;20473;-70
2022/12/04 19:47:10;;;;;;;46.42;28.42;;;;;;;1.62;100.00;101885.41;10387331;28;20061;-69
2022/12/04 19:52:11;;;;;;;51.45;33.42;;;;;;;1.57;100.00;101884.09;10386698;28;20034;-69
2022/12/04 19:57:13;;;;;;;29.80;18.05;;;;;;;1.61;100.00;101875.72;10387049;28;20115;-69
2022/12/04 20:02:13;;;;;;;49.60;28.02;;;;;;;1.63;100.00;101880.97;10387016;28;20026;-69
2022/12/04 20:07:14;;;;;;;43.58;26.52;;;;;;;1.69;100.00;101884.97;10402581;28;20351;-71
2022/12/04 20:12:14;;;;;;;46.13;28.70;;;;;;;1.67;100.00;101898.44;10385642;28;20026;-70
2022/12/04 20:17:15;;;;;;;42.67;30.02;;;;;;;1.81;100.00;101895.56;10385741;28;20034;-70
2022/12/04 20:22:15;;;;;;;43.80;25.77;;;;;;;1.79;100.00;101894.00;10399310;28;20086;-70
2022/12/04 20:27:15;;;;;;;39.92;25.73;;;;;;;1.83;100.00;101892.81;10378907;28;20049;-70
2022/12/04 20:32:16;;;;;;;41.90;24.80;;;;;;;1.81;100.00;101881.38;10378685;28;20065;-70
2022/12/04 20:37:16;;;;;;;48.45;25.90;;;;;;;1.80;100.00;101888.53;10380706;28;20104;-70
2022/12/04 20:42:17;;;;;;;39.03;25.75;;;;;;;1.78;100.00;101893.13;10382423;28;20085;-70
2022/12/04 20:47:17;;;;;;;44.58;28.45;;;;;;;1.85;100.00;101897.06;10386792;28;20033;-69
2022/12/04 20:52:18;;;;;;;41.55;26.00;;;;;;;1.86;100.00;101889.91;10381295;28;20030;-70
2022/12/04 20:57:18;;;;;;;47.65;27.20;;;;;;;1.86;100.00;101887.22;10379060;28;20101;-70
2022/12/04 21:02:19;;;;;;;40.45;25.70;;;;;;;1.86;100.00;101893.41;10380316;28;20092;-69
2022/12/04 21:07:19;;;;;;;42.72;29.10;;;;;;;1.85;100.00;101904.19;10381702;28;20034;-70
2022/12/04 21:17:39;;;;;;;46.40;29.23;;;;;;;1.85;100.00;101905.06;10376873;28;20109;-70
2022/12/04 21:22:39;;;;;;;42.78;29.50;;;;;;;1.90;100.00;101899.38;10359811;28;20545;-69
2022/12/04 21:27:40;;;;;;;55.78;32.25;;;;;;;1.91;100.00;101903.72;10376356;28;20088;-69
2022/12/04 21:32:40;;;;;;;55.03;33.85;;;;;;;1.91;100.00;101910.91;10376905;28;20034;-69
2022/12/04 21:37:40;;;;;;;52.83;31.27;;;;;;;1.86;100.00;101904.09;10375790;28;20051;-69
2022/12/04 21:42:42;;;;;;;47.63;30.88;;;;;;;1.86;100.00;101898.75;10375828;28;20053;-70
2022/12/04 21:47:43;;;;;;;58.65;32.83;;;;;;;1.90;100.00;101899.38;10376638;28;20528;-70
2022/12/04 21:52:43;;;;;;;51.58;32.95;;;;;;;1.92;100.00;101901.94;10376414;28;20037;-69
2022/12/04 21:57:44;;;;;;;61.40;33.30;;;;;;;1.90;100.00;101907.38;10375221;28;20026;-70
2022/12/04 22:02:44;;;;;;;61.17;34.08;;;;;;;1.90;100.00;101898.53;10375650;28;20034;-69
2022/12/04 22:07:45;;;;;;;45.85;28.05;;;;;;;1.90;100.00;101902.03;10374522;28;20456;-70
2022/12/04 22:12:45;;;;;;;59.15;34.97;;;;;;;1.96;100.00;101898.91;10376157;28;20033;-68
2022/12/04 22:17:45;;;;;;;59.45;33.30;;;;;;;1.94;100.00;101900.84;10377330;28;20133;-69
2022/12/04 22:22:46;;;;;;;47.90;31.20;;;;;;;2.01;100.00;101896.75;10391430;28;20054;-69
2022/12/04 22:27:46;;;;;;;53.85;31.67;;;;;;;2.08;100.00;101887.28;10373812;28;20033;-69
2022/12/04 22:32:47;;;;;;;57.05;33.70;;;;;;;2.06;100.00;101902.56;10390740;28;20021;-69
2022/12/04 22:37:47;;;;;;;52.10;32.95;;;;;;;2.08;100.00;101900.66;10375475;28;20038;-69
2022/12/04 22:42:47;;;;;;;48.85;35.25;;;;;;;2.11;100.00;101902.22;10373963;28;20030;-69
2022/12/04 22:47:48;;;;;;;62.53;37.42;;;;;;;2.09;100.00;101893.47;10375573;28;20346;-69
2022/12/04 22:52:48;;;;;;;55.97;35.13;;;;;;;2.14;100.00;101902.00;10374532;28;20168;-69
2022/12/04 22:57:48;;;;;;;62.70;33.47;;;;;;;2.16;100.00;101899.19;10373826;28;20381;-68
2022/12/04 23:02:49;;;;;;;65.07;41.80;;;;;;;2.19;100.00;101889.13;10377708;28;20120;-69